sensor_id;sensor_type;location;lat;lon;timestamp;temperature;humidity
20358;DHT22;75325;47.812;13.026;2024-01-27T00:01:01;10.10;69.70
20358;DHT22;75325;47.812;13.026;2024-01-27T00:03:29;10.10;69.70
20358;DHT22;75325;47.812;13.026;2024-01-27T00:05:58;10.10;69.90
20358;DHT22;75325;47.812;13.026;2024-01-27T00:08:26;10.10;70.40
20358;DHT22;75325;47.812;13.026;2024-01-27T00:10:55;10.10;70.80
20358;DHT22;75325;47.812;13.026;2024-01-27T00:13:23;10.20;71.20
20358;DHT22;75325;47.812;13.026;2024-01-27T00:15:51;10.20;71.40
20358;DHT22;75325;47.812;13.026;2024-01-27T00:18:22;10.20;71.60
20358;DHT22;75325;47.812;13.026;2024-01-27T00:20:51;10.30;71.70
20358;DHT22;75325;47.812;13.026;2024-01-27T00:23:19;10.40;71.80
20358;DHT22;75325;47.812;13.026;2024-01-27T00:25:48;10.50;71.70
20358;DHT22;75325;47.812;13.026;2024-01-27T00:28:16;10.60;71.70
20358;DHT22;75325;47.812;13.026;2024-01-27T00:30:44;10.70;71.60
20358;DHT22;75325;47.812;13.026;2024-01-27T00:33:13;10.70;71.40
20358;DHT22;75325;47.812;13.026;2024-01-27T00:35:43;10.80;71.50
20358;DHT22;75325;47.812;13.026;2024-01-27T00:38:13;10.90;71.50
20358;DHT22;75325;47.812;13.026;2024-01-27T00:40:41;10.90;71.90
20358;DHT22;75325;47.812;13.026;2024-01-27T00:43:10;11.00;71.30
20358;DHT22;75325;47.812;13.026;2024-01-27T00:45:38;10.90;70.80
20358;DHT22;75325;47.812;13.026;2024-01-27T00:48:08;10.90;70.60
20358;DHT22;75325;47.812;13.026;2024-01-27T00:50:38;10.90;70.50
20358;DHT22;75325;47.812;13.026;2024-01-27T00:53:08;10.80;70.20
20358;DHT22;75325;47.812;13.026;2024-01-27T00:55:37;10.80;70.00
20358;DHT22;75325;47.812;13.026;2024-01-27T00:58:07;10.70;69.70
20358;DHT22;75325;47.812;13.026;2024-01-27T01:00:35;10.60;69.50
20358;DHT22;75325;47.812;13.026;2024-01-27T01:03:07;10.50;69.40
20358;DHT22;75325;47.812;13.026;2024-01-27T01:05:35;10.50;69.60
20358;DHT22;75325;47.812;13.026;2024-01-27T01:08:04;10.50;69.80
20358;DHT22;75325;47.812;13.026;2024-01-27T01:10:35;10.40;70.00
20358;DHT22;75325;47.812;13.026;2024-01-27T01:13:04;10.40;70.30
20358;DHT22;75325;47.812;13.026;2024-01-27T01:15:33;10.50;70.50
20358;DHT22;75325;47.812;13.026;2024-01-27T01:18:01;10.50;70.50
20358;DHT22;75325;47.812;13.026;2024-01-27T01:20:31;10.80;71.20
20358;DHT22;75325;47.812;13.026;2024-01-27T01:23:03;10.50;70.40
20358;DHT22;75325;47.812;13.026;2024-01-27T01:25:31;10.50;70.40
20358;DHT22;75325;47.812;13.026;2024-01-27T01:28:01;10.50;70.20
20358;DHT22;75325;47.812;13.026;2024-01-27T01:30:30;10.50;70.00
20358;DHT22;75325;47.812;13.026;2024-01-27T01:32:58;10.50;70.10
20358;DHT22;75325;47.812;13.026;2024-01-27T01:35:27;10.50;70.10
20358;DHT22;75325;47.812;13.026;2024-01-27T01:37:55;10.50;70.20
20358;DHT22;75325;47.812;13.026;2024-01-27T01:40:24;10.50;70.30
20358;DHT22;75325;47.812;13.026;2024-01-27T01:42:52;10.50;70.20
20358;DHT22;75325;47.812;13.026;2024-01-27T01:45:22;10.50;70.10
20358;DHT22;75325;47.812;13.026;2024-01-27T01:47:51;10.50;70.60
20358;DHT22;75325;47.812;13.026;2024-01-27T01:50:20;10.40;70.00
20358;DHT22;75325;47.812;13.026;2024-01-27T01:52:49;10.40;70.00
20358;DHT22;75325;47.812;13.026;2024-01-27T01:55:20;10.40;70.00
20358;DHT22;75325;47.812;13.026;2024-01-27T01:57:48;10.40;70.00
20358;DHT22;75325;47.812;13.026;2024-01-27T02:00:17;10.40;70.00
20358;DHT22;75325;47.812;13.026;2024-01-27T02:02:47;10.40;70.10
20358;DHT22;75325;47.812;13.026;2024-01-27T02:05:15;10.40;70.20
20358;DHT22;75325;47.812;13.026;2024-01-27T02:07:44;10.40;70.30
20358;DHT22;75325;47.812;13.026;2024-01-27T02:10:16;10.40;70.30
20358;DHT22;75325;47.812;13.026;2024-01-27T02:12:45;10.50;70.60
20358;DHT22;75325;47.812;13.026;2024-01-27T02:15:13;10.50;70.60
20358;DHT22;75325;47.812;13.026;2024-01-27T02:17:42;10.50;70.60
20358;DHT22;75325;47.812;13.026;2024-01-27T02:20:12;10.60;70.80
20358;DHT22;75325;47.812;13.026;2024-01-27T02:22:41;10.60;70.80
20358;DHT22;75325;47.812;13.026;2024-01-27T02:25:10;10.70;71.20
20358;DHT22;75325;47.812;13.026;2024-01-27T02:27:38;10.70;71.40
20358;DHT22;75325;47.812;13.026;2024-01-27T02:30:07;10.80;70.90
20358;DHT22;75325;47.812;13.026;2024-01-27T02:32:36;10.80;70.90
20358;DHT22;75325;47.812;13.026;2024-01-27T02:35:05;10.90;70.90
20358;DHT22;75325;47.812;13.026;2024-01-27T02:37:34;10.90;70.90
20358;DHT22;75325;47.812;13.026;2024-01-27T02:40:03;10.90;70.60
20358;DHT22;75325;47.812;13.026;2024-01-27T02:42:34;10.90;70.60
20358;DHT22;75325;47.812;13.026;2024-01-27T02:45:03;10.90;70.40
20358;DHT22;75325;47.812;13.026;2024-01-27T02:47:31;10.90;70.30
20358;DHT22;75325;47.812;13.026;2024-01-27T02:50:00;10.90;70.30
20358;DHT22;75325;47.812;13.026;2024-01-27T02:52:28;11.00;70.40
20358;DHT22;75325;47.812;13.026;2024-01-27T02:54:56;11.00;70.30
20358;DHT22;75325;47.812;13.026;2024-01-27T02:57:25;10.90;70.20
20358;DHT22;75325;47.812;13.026;2024-01-27T02:59:55;10.90;70.20
20358;DHT22;75325;47.812;13.026;2024-01-27T03:02:23;10.90;70.10
20358;DHT22;75325;47.812;13.026;2024-01-27T03:04:51;10.90;70.20
20358;DHT22;75325;47.812;13.026;2024-01-27T03:07:20;11.00;70.90
20358;DHT22;75325;47.812;13.026;2024-01-27T03:09:48;11.00;70.20
20358;DHT22;75325;47.812;13.026;2024-01-27T03:12:16;11.00;70.20
20358;DHT22;75325;47.812;13.026;2024-01-27T03:14:45;11.10;70.30
20358;DHT22;75325;47.812;13.026;2024-01-27T03:17:16;11.10;70.10
20358;DHT22;75325;47.812;13.026;2024-01-27T03:19:45;11.10;70.00
20358;DHT22;75325;47.812;13.026;2024-01-27T03:22:15;11.10;69.90
20358;DHT22;75325;47.812;13.026;2024-01-27T03:24:44;11.10;69.90
20358;DHT22;75325;47.812;13.026;2024-01-27T03:27:12;11.10;69.80
20358;DHT22;75325;47.812;13.026;2024-01-27T03:29:40;11.10;69.80
20358;DHT22;75325;47.812;13.026;2024-01-27T03:32:08;11.10;70.00
20358;DHT22;75325;47.812;13.026;2024-01-27T03:34:43;11.10;70.00
20358;DHT22;75325;47.812;13.026;2024-01-27T03:37:11;11.00;69.90
20358;DHT22;75325;47.812;13.026;2024-01-27T03:39:41;11.00;70.00
20358;DHT22;75325;47.812;13.026;2024-01-27T03:42:09;11.00;70.10
20358;DHT22;75325;47.812;13.026;2024-01-27T03:44:38;11.00;70.20
20358;DHT22;75325;47.812;13.026;2024-01-27T03:47:06;11.00;70.20
20358;DHT22;75325;47.812;13.026;2024-01-27T03:49:34;11.00;70.30
20358;DHT22;75325;47.812;13.026;2024-01-27T03:52:05;11.00;70.30
20358;DHT22;75325;47.812;13.026;2024-01-27T03:54:33;11.00;70.40
20358;DHT22;75325;47.812;13.026;2024-01-27T03:57:02;11.00;70.20
20358;DHT22;75325;47.812;13.026;2024-01-27T03:59:30;11.00;70.30
20358;DHT22;75325;47.812;13.026;2024-01-27T04:01:59;11.00;70.40
20358;DHT22;75325;47.812;13.026;2024-01-27T04:04:27;11.00;70.40
20358;DHT22;75325;47.812;13.026;2024-01-27T04:06:55;10.90;70.90
20358;DHT22;75325;47.812;13.026;2024-01-27T04:09:25;10.90;70.50
20358;DHT22;75325;47.812;13.026;2024-01-27T04:11:54;10.90;70.40
20358;DHT22;75325;47.812;13.026;2024-01-27T04:14:22;10.90;70.50
20358;DHT22;75325;47.812;13.026;2024-01-27T04:16:51;10.90;70.50
20358;DHT22;75325;47.812;13.026;2024-01-27T04:19:19;10.90;71.30
20358;DHT22;75325;47.812;13.026;2024-01-27T04:21:48;10.90;70.40
20358;DHT22;75325;47.812;13.026;2024-01-27T04:24:16;10.90;70.40
20358;DHT22;75325;47.812;13.026;2024-01-27T04:26:46;11.00;70.40
20358;DHT22;75325;47.812;13.026;2024-01-27T04:29:14;11.00;70.40
20358;DHT22;75325;47.812;13.026;2024-01-27T04:31:42;11.00;70.40
20358;DHT22;75325;47.812;13.026;2024-01-27T04:34:11;10.90;70.30
20358;DHT22;75325;47.812;13.026;2024-01-27T04:36:39;10.90;70.30
20358;DHT22;75325;47.812;13.026;2024-01-27T04:39:08;10.90;70.30
20358;DHT22;75325;47.812;13.026;2024-01-27T04:41:41;10.90;70.50
20358;DHT22;75325;47.812;13.026;2024-01-27T04:44:11;11.00;70.40
20358;DHT22;75325;47.812;13.026;2024-01-27T04:46:40;11.00;70.40
20358;DHT22;75325;47.812;13.026;2024-01-27T04:49:08;11.00;70.40
20358;DHT22;75325;47.812;13.026;2024-01-27T04:51:36;11.00;70.30
20358;DHT22;75325;47.812;13.026;2024-01-27T04:54:05;11.00;70.20
20358;DHT22;75325;47.812;13.026;2024-01-27T04:56:34;11.00;70.10
20358;DHT22;75325;47.812;13.026;2024-01-27T04:59:02;11.00;70.10
20358;DHT22;75325;47.812;13.026;2024-01-27T05:01:32;11.00;70.80
20358;DHT22;75325;47.812;13.026;2024-01-27T05:04:01;11.00;69.90
20358;DHT22;75325;47.812;13.026;2024-01-27T05:06:29;11.00;70.20
20358;DHT22;75325;47.812;13.026;2024-01-27T05:08:58;11.00;70.00
20358;DHT22;75325;47.812;13.026;2024-01-27T05:11:30;11.00;70.80
20358;DHT22;75325;47.812;13.026;2024-01-27T05:13:59;11.00;70.00
20358;DHT22;75325;47.812;13.026;2024-01-27T05:16:27;11.10;70.60
20358;DHT22;75325;47.812;13.026;2024-01-27T05:18:57;11.10;70.00
20358;DHT22;75325;47.812;13.026;2024-01-27T05:21:26;11.00;69.90
20358;DHT22;75325;47.812;13.026;2024-01-27T05:23:54;11.00;69.90
20358;DHT22;75325;47.812;13.026;2024-01-27T05:26:22;11.00;69.90
20358;DHT22;75325;47.812;13.026;2024-01-27T05:28:51;11.00;69.90
20358;DHT22;75325;47.812;13.026;2024-01-27T05:31:19;11.00;69.90
20358;DHT22;75325;47.812;13.026;2024-01-27T05:33:47;11.00;70.70
20358;DHT22;75325;47.812;13.026;2024-01-27T05:36:17;11.00;69.80
20358;DHT22;75325;47.812;13.026;2024-01-27T05:38:46;11.00;69.70
20358;DHT22;75325;47.812;13.026;2024-01-27T05:41:14;11.00;69.70
20358;DHT22;75325;47.812;13.026;2024-01-27T05:43:43;11.00;69.50
20358;DHT22;75325;47.812;13.026;2024-01-27T05:46:11;11.00;69.50
20358;DHT22;75325;47.812;13.026;2024-01-27T05:48:40;10.90;69.30
20358;DHT22;75325;47.812;13.026;2024-01-27T05:51:08;10.90;69.30
20358;DHT22;75325;47.812;13.026;2024-01-27T05:53:39;10.90;69.50
20358;DHT22;75325;47.812;13.026;2024-01-27T05:56:08;10.80;69.30
20358;DHT22;75325;47.812;13.026;2024-01-27T05:58:36;10.80;69.20
20358;DHT22;75325;47.812;13.026;2024-01-27T06:01:05;10.80;69.30
20358;DHT22;75325;47.812;13.026;2024-01-27T06:03:35;10.80;69.20
20358;DHT22;75325;47.812;13.026;2024-01-27T06:06:04;10.80;69.30
20358;DHT22;75325;47.812;13.026;2024-01-27T06:08:32;10.80;69.40
20358;DHT22;75325;47.812;13.026;2024-01-27T06:11:03;10.80;69.30
20358;DHT22;75325;47.812;13.026;2024-01-27T06:13:36;10.80;69.30
20358;DHT22;75325;47.812;13.026;2024-01-27T06:16:07;10.80;69.30
20358;DHT22;75325;47.812;13.026;2024-01-27T06:18:37;10.80;69.30
20358;DHT22;75325;47.812;13.026;2024-01-27T06:21:05;10.80;69.30
20358;DHT22;75325;47.812;13.026;2024-01-27T06:23:34;10.80;69.20
20358;DHT22;75325;47.812;13.026;2024-01-27T06:26:06;10.80;69.30
20358;DHT22;75325;47.812;13.026;2024-01-27T06:28:34;10.80;69.10
20358;DHT22;75325;47.812;13.026;2024-01-27T06:31:04;10.80;69.10
20358;DHT22;75325;47.812;13.026;2024-01-27T06:33:34;10.70;69.00
20358;DHT22;75325;47.812;13.026;2024-01-27T06:36:03;10.80;69.20
20358;DHT22;75325;47.812;13.026;2024-01-27T06:38:32;10.80;69.20
20358;DHT22;75325;47.812;13.026;2024-01-27T06:41:00;10.80;69.10
20358;DHT22;75325;47.812;13.026;2024-01-27T06:43:32;10.80;69.00
20358;DHT22;75325;47.812;13.026;2024-01-27T06:46:00;10.80;69.00
20358;DHT22;75325;47.812;13.026;2024-01-27T06:48:28;10.80;68.80
20358;DHT22;75325;47.812;13.026;2024-01-27T06:50:56;10.80;68.70
20358;DHT22;75325;47.812;13.026;2024-01-27T06:53:25;10.80;68.60
20358;DHT22;75325;47.812;13.026;2024-01-27T06:55:54;10.70;68.50
20358;DHT22;75325;47.812;13.026;2024-01-27T06:58:22;10.70;68.40
20358;DHT22;75325;47.812;13.026;2024-01-27T07:00:51;10.70;68.40
20358;DHT22;75325;47.812;13.026;2024-01-27T07:03:21;10.60;68.50
20358;DHT22;75325;47.812;13.026;2024-01-27T07:05:49;10.60;68.50
20358;DHT22;75325;47.812;13.026;2024-01-27T07:08:18;10.60;68.30
20358;DHT22;75325;47.812;13.026;2024-01-27T07:10:46;10.50;68.20
20358;DHT22;75325;47.812;13.026;2024-01-27T07:13:14;10.50;68.10
20358;DHT22;75325;47.812;13.026;2024-01-27T07:15:43;10.50;68.10
20358;DHT22;75325;47.812;13.026;2024-01-27T07:18:13;10.40;68.10
20358;DHT22;75325;47.812;13.026;2024-01-27T07:20:42;10.40;68.10
20358;DHT22;75325;47.812;13.026;2024-01-27T07:23:10;10.40;68.30
20358;DHT22;75325;47.812;13.026;2024-01-27T07:25:39;10.40;68.50
20358;DHT22;75325;47.812;13.026;2024-01-27T07:28:07;10.50;68.60
20358;DHT22;75325;47.812;13.026;2024-01-27T07:30:37;10.50;68.70
20358;DHT22;75325;47.812;13.026;2024-01-27T07:33:05;10.60;68.70
20358;DHT22;75325;47.812;13.026;2024-01-27T07:35:36;10.60;68.70
20358;DHT22;75325;47.812;13.026;2024-01-27T07:38:05;10.60;68.50
20358;DHT22;75325;47.812;13.026;2024-01-27T07:40:33;10.60;68.50
20358;DHT22;75325;47.812;13.026;2024-01-27T07:43:01;10.60;68.50
20358;DHT22;75325;47.812;13.026;2024-01-27T07:45:31;10.50;68.20
20358;DHT22;75325;47.812;13.026;2024-01-27T07:48:00;10.40;68.30
20358;DHT22;75325;47.812;13.026;2024-01-27T07:50:29;10.40;67.70
20358;DHT22;75325;47.812;13.026;2024-01-27T07:53:00;10.20;67.40
20358;DHT22;75325;47.812;13.026;2024-01-27T07:55:29;10.10;67.40
20358;DHT22;75325;47.812;13.026;2024-01-27T07:57:57;10.10;67.70
20358;DHT22;75325;47.812;13.026;2024-01-27T08:00:26;10.00;67.80
20358;DHT22;75325;47.812;13.026;2024-01-27T08:02:55;10.00;67.90
20358;DHT22;75325;47.812;13.026;2024-01-27T08:05:23;10.00;68.00
20358;DHT22;75325;47.812;13.026;2024-01-27T08:07:52;10.00;68.00
20358;DHT22;75325;47.812;13.026;2024-01-27T08:10:22;9.90;67.90
20358;DHT22;75325;47.812;13.026;2024-01-27T08:12:51;9.90;67.90
20358;DHT22;75325;47.812;13.026;2024-01-27T08:15:20;9.90;68.00
20358;DHT22;75325;47.812;13.026;2024-01-27T08:17:48;9.90;67.90
20358;DHT22;75325;47.812;13.026;2024-01-27T08:20:17;9.80;68.00
20358;DHT22;75325;47.812;13.026;2024-01-27T08:22:45;9.90;68.30
20358;DHT22;75325;47.812;13.026;2024-01-27T08:25:17;9.90;68.40
20358;DHT22;75325;47.812;13.026;2024-01-27T08:27:47;9.90;68.50
20358;DHT22;75325;47.812;13.026;2024-01-27T08:30:16;9.90;68.50
20358;DHT22;75325;47.812;13.026;2024-01-27T08:32:45;10.00;68.70
20358;DHT22;75325;47.812;13.026;2024-01-27T08:35:13;10.10;68.80
20358;DHT22;75325;47.812;13.026;2024-01-27T08:37:42;10.10;68.70
20358;DHT22;75325;47.812;13.026;2024-01-27T08:40:11;10.20;69.00
20358;DHT22;75325;47.812;13.026;2024-01-27T08:42:40;10.30;69.00
20358;DHT22;75325;47.812;13.026;2024-01-27T08:45:10;10.40;69.00
20358;DHT22;75325;47.812;13.026;2024-01-27T08:47:39;10.60;69.10
20358;DHT22;75325;47.812;13.026;2024-01-27T08:50:08;10.70;68.90
20358;DHT22;75325;47.812;13.026;2024-01-27T08:52:38;10.70;68.70
20358;DHT22;75325;47.812;13.026;2024-01-27T08:55:07;10.80;68.90
20358;DHT22;75325;47.812;13.026;2024-01-27T08:57:35;10.90;68.90
20358;DHT22;75325;47.812;13.026;2024-01-27T09:00:05;10.90;68.50
20358;DHT22;75325;47.812;13.026;2024-01-27T09:02:35;10.90;68.20
20358;DHT22;75325;47.812;13.026;2024-01-27T09:05:04;10.80;67.70
20358;DHT22;75325;47.812;13.026;2024-01-27T09:07:34;10.70;67.20
20358;DHT22;75325;47.812;13.026;2024-01-27T09:10:03;10.60;66.90
20358;DHT22;75325;47.812;13.026;2024-01-27T09:12:31;10.50;66.70
20358;DHT22;75325;47.812;13.026;2024-01-27T09:15:00;10.40;66.80
20358;DHT22;75325;47.812;13.026;2024-01-27T09:17:28;10.30;66.90
20358;DHT22;75325;47.812;13.026;2024-01-27T09:19:58;10.20;66.80
20358;DHT22;75325;47.812;13.026;2024-01-27T09:22:27;10.20;66.80
20358;DHT22;75325;47.812;13.026;2024-01-27T09:24:55;10.30;67.30
20358;DHT22;75325;47.812;13.026;2024-01-27T09:27:23;10.00;67.00
20358;DHT22;75325;47.812;13.026;2024-01-27T09:29:52;10.00;67.30
20358;DHT22;75325;47.812;13.026;2024-01-27T09:32:20;10.00;67.60
20358;DHT22;75325;47.812;13.026;2024-01-27T09:34:49;10.00;67.50
20358;DHT22;75325;47.812;13.026;2024-01-27T09:37:21;10.10;67.70
20358;DHT22;75325;47.812;13.026;2024-01-27T09:39:54;10.10;67.70
20358;DHT22;75325;47.812;13.026;2024-01-27T09:42:23;10.20;68.10
20358;DHT22;75325;47.812;13.026;2024-01-27T09:44:53;10.30;68.20
20358;DHT22;75325;47.812;13.026;2024-01-27T09:47:24;10.40;68.20
20358;DHT22;75325;47.812;13.026;2024-01-27T09:49:53;10.60;68.90
20358;DHT22;75325;47.812;13.026;2024-01-27T09:52:23;11.00;70.60
20358;DHT22;75325;47.812;13.026;2024-01-27T09:54:52;11.80;72.10
20358;DHT22;75325;47.812;13.026;2024-01-27T09:57:20;12.70;72.70
20358;DHT22;75325;47.812;13.026;2024-01-27T09:59:49;13.70;73.20
20358;DHT22;75325;47.812;13.026;2024-01-27T10:02:18;14.60;71.50
20358;DHT22;75325;47.812;13.026;2024-01-27T10:04:48;15.40;70.50
20358;DHT22;75325;47.812;13.026;2024-01-27T10:07:17;16.40;70.70
20358;DHT22;75325;47.812;13.026;2024-01-27T10:09:48;16.90;69.30
20358;DHT22;75325;47.812;13.026;2024-01-27T10:12:18;17.50;67.90
20358;DHT22;75325;47.812;13.026;2024-01-27T10:14:48;18.10;67.20
20358;DHT22;75325;47.812;13.026;2024-01-27T10:17:22;18.70;65.90
20358;DHT22;75325;47.812;13.026;2024-01-27T10:19:59;19.10;64.80
20358;DHT22;75325;47.812;13.026;2024-01-27T10:22:28;19.60;64.20
20358;DHT22;75325;47.812;13.026;2024-01-27T10:24:58;20.10;63.00
20358;DHT22;75325;47.812;13.026;2024-01-27T10:27:26;20.20;60.70
20358;DHT22;75325;47.812;13.026;2024-01-27T10:29:55;20.40;60.80
20358;DHT22;75325;47.812;13.026;2024-01-27T10:32:23;20.70;60.30
20358;DHT22;75325;47.812;13.026;2024-01-27T10:35:01;20.80;59.20
20358;DHT22;75325;47.812;13.026;2024-01-27T10:37:31;21.00;58.80
20358;DHT22;75325;47.812;13.026;2024-01-27T10:40:01;21.00;58.30
20358;DHT22;75325;47.812;13.026;2024-01-27T10:42:30;21.10;58.40
20358;DHT22;75325;47.812;13.026;2024-01-27T10:44:59;21.20;57.90
20358;DHT22;75325;47.812;13.026;2024-01-27T10:47:29;21.30;57.80
20358;DHT22;75325;47.812;13.026;2024-01-27T10:49:59;21.30;57.10
20358;DHT22;75325;47.812;13.026;2024-01-27T10:52:29;21.40;57.00
20358;DHT22;75325;47.812;13.026;2024-01-27T10:55:01;21.30;56.70
20358;DHT22;75325;47.812;13.026;2024-01-27T10:57:32;21.20;56.90
20358;DHT22;75325;47.812;13.026;2024-01-27T11:00:02;21.20;57.10
20358;DHT22;75325;47.812;13.026;2024-01-27T11:02:34;21.10;57.90
20358;DHT22;75325;47.812;13.026;2024-01-27T11:05:07;21.10;56.90
20358;DHT22;75325;47.812;13.026;2024-01-27T11:07:36;20.90;56.70
20358;DHT22;75325;47.812;13.026;2024-01-27T11:10:08;20.70;57.00
20358;DHT22;75325;47.812;13.026;2024-01-27T11:12:37;20.40;56.70
20358;DHT22;75325;47.812;13.026;2024-01-27T11:15:07;20.20;57.10
20358;DHT22;75325;47.812;13.026;2024-01-27T11:17:39;19.90;57.00
20358;DHT22;75325;47.812;13.026;2024-01-27T11:20:09;19.60;57.20
20358;DHT22;75325;47.812;13.026;2024-01-27T11:22:40;19.10;57.60
20358;DHT22;75325;47.812;13.026;2024-01-27T11:25:17;18.80;58.40
20358;DHT22;75325;47.812;13.026;2024-01-27T11:27:46;18.40;59.30
20358;DHT22;75325;47.812;13.026;2024-01-27T11:30:25;18.00;59.00
20358;DHT22;75325;47.812;13.026;2024-01-27T11:32:55;17.50;58.90
20358;DHT22;75325;47.812;13.026;2024-01-27T11:35:24;16.90;59.20
20358;DHT22;75325;47.812;13.026;2024-01-27T11:37:54;16.20;60.00
20358;DHT22;75325;47.812;13.026;2024-01-27T11:40:24;15.60;61.20
20358;DHT22;75325;47.812;13.026;2024-01-27T11:42:55;15.10;62.50
20358;DHT22;75325;47.812;13.026;2024-01-27T11:45:24;14.70;63.40
20358;DHT22;75325;47.812;13.026;2024-01-27T11:47:52;14.40;64.30
20358;DHT22;75325;47.812;13.026;2024-01-27T11:50:21;14.10;65.10
20358;DHT22;75325;47.812;13.026;2024-01-27T11:52:49;13.90;65.70
20358;DHT22;75325;47.812;13.026;2024-01-27T11:55:18;13.80;66.20
20358;DHT22;75325;47.812;13.026;2024-01-27T11:57:48;13.70;66.80
20358;DHT22;75325;47.812;13.026;2024-01-27T12:00:17;13.60;66.90
20358;DHT22;75325;47.812;13.026;2024-01-27T12:02:50;13.50;67.40
20358;DHT22;75325;47.812;13.026;2024-01-27T12:05:19;13.40;67.30
20358;DHT22;75325;47.812;13.026;2024-01-27T12:07:48;13.40;67.60
20358;DHT22;75325;47.812;13.026;2024-01-27T12:10:16;13.40;67.60
20358;DHT22;75325;47.812;13.026;2024-01-27T12:12:44;13.40;67.60
20358;DHT22;75325;47.812;13.026;2024-01-27T12:15:14;13.30;67.60
20358;DHT22;75325;47.812;13.026;2024-01-27T12:17:49;13.30;67.60
20358;DHT22;75325;47.812;13.026;2024-01-27T12:20:18;13.40;67.60
20358;DHT22;75325;47.812;13.026;2024-01-27T12:22:47;13.40;67.70
20358;DHT22;75325;47.812;13.026;2024-01-27T12:25:16;13.40;67.60
20358;DHT22;75325;47.812;13.026;2024-01-27T12:27:45;13.40;67.60
20358;DHT22;75325;47.812;13.026;2024-01-27T12:30:15;13.40;67.50
20358;DHT22;75325;47.812;13.026;2024-01-27T12:32:43;13.50;67.60
20358;DHT22;75325;47.812;13.026;2024-01-27T12:35:13;13.50;67.50
20358;DHT22;75325;47.812;13.026;2024-01-27T12:37:43;13.50;67.30
20358;DHT22;75325;47.812;13.026;2024-01-27T12:40:18;13.50;67.20
20358;DHT22;75325;47.812;13.026;2024-01-27T12:42:50;13.60;66.90
20358;DHT22;75325;47.812;13.026;2024-01-27T12:45:20;13.60;66.90
20358;DHT22;75325;47.812;13.026;2024-01-27T12:47:49;13.60;66.90
20358;DHT22;75325;47.812;13.026;2024-01-27T12:50:18;13.70;66.80
20358;DHT22;75325;47.812;13.026;2024-01-27T12:52:47;13.70;66.70
20358;DHT22;75325;47.812;13.026;2024-01-27T12:55:15;13.70;66.60
20358;DHT22;75325;47.812;13.026;2024-01-27T12:57:44;13.80;66.50
20358;DHT22;75325;47.812;13.026;2024-01-27T13:00:13;13.70;66.30
20358;DHT22;75325;47.812;13.026;2024-01-27T13:02:44;13.70;66.30
20358;DHT22;75325;47.812;13.026;2024-01-27T13:05:13;13.70;66.10
20358;DHT22;75325;47.812;13.026;2024-01-27T13:07:41;13.70;66.20
20358;DHT22;75325;47.812;13.026;2024-01-27T13:10:12;13.70;66.30
20358;DHT22;75325;47.812;13.026;2024-01-27T13:12:40;13.80;66.30
20358;DHT22;75325;47.812;13.026;2024-01-27T13:15:09;13.80;66.30
20358;DHT22;75325;47.812;13.026;2024-01-27T13:17:38;13.90;66.20
20358;DHT22;75325;47.812;13.026;2024-01-27T13:20:11;13.90;66.00
20358;DHT22;75325;47.812;13.026;2024-01-27T13:22:44;13.90;65.80
20358;DHT22;75325;47.812;13.026;2024-01-27T13:25:13;14.00;65.90
20358;DHT22;75325;47.812;13.026;2024-01-27T13:27:42;14.00;65.70
20358;DHT22;75325;47.812;13.026;2024-01-27T13:30:11;14.00;65.50
20358;DHT22;75325;47.812;13.026;2024-01-27T13:32:39;14.00;65.70
20358;DHT22;75325;47.812;13.026;2024-01-27T13:35:08;14.00;65.40
20358;DHT22;75325;47.812;13.026;2024-01-27T13:37:39;14.00;65.40
20358;DHT22;75325;47.812;13.026;2024-01-27T13:40:08;13.90;65.20
20358;DHT22;75325;47.812;13.026;2024-01-27T13:42:37;13.90;65.20
20358;DHT22;75325;47.812;13.026;2024-01-27T13:45:06;13.90;65.20
20358;DHT22;75325;47.812;13.026;2024-01-27T13:47:35;13.90;65.00
20358;DHT22;75325;47.812;13.026;2024-01-27T13:50:05;13.90;64.90
20358;DHT22;75325;47.812;13.026;2024-01-27T13:52:34;13.90;64.80
20358;DHT22;75325;47.812;13.026;2024-01-27T13:55:05;13.80;64.80
20358;DHT22;75325;47.812;13.026;2024-01-27T13:57:34;13.80;64.70
20358;DHT22;75325;47.812;13.026;2024-01-27T14:00:02;13.80;64.60
20358;DHT22;75325;47.812;13.026;2024-01-27T14:02:31;13.80;64.50
20358;DHT22;75325;47.812;13.026;2024-01-27T14:05:04;13.70;64.30
20358;DHT22;75325;47.812;13.026;2024-01-27T14:07:35;13.70;64.40
20358;DHT22;75325;47.812;13.026;2024-01-27T14:10:05;13.70;64.20
20358;DHT22;75325;47.812;13.026;2024-01-27T14:12:34;13.60;64.00
20358;DHT22;75325;47.812;13.026;2024-01-27T14:15:04;13.60;63.90
20358;DHT22;75325;47.812;13.026;2024-01-27T14:17:34;13.50;64.00
20358;DHT22;75325;47.812;13.026;2024-01-27T14:20:04;13.40;63.90
20358;DHT22;75325;47.812;13.026;2024-01-27T14:22:33;13.30;64.00
20358;DHT22;75325;47.812;13.026;2024-01-27T14:25:02;13.30;64.10
20358;DHT22;75325;47.812;13.026;2024-01-27T14:27:33;13.20;64.00
20358;DHT22;75325;47.812;13.026;2024-01-27T14:30:02;13.20;63.90
20358;DHT22;75325;47.812;13.026;2024-01-27T14:32:31;13.10;64.00
20358;DHT22;75325;47.812;13.026;2024-01-27T14:35:00;13.10;64.10
20358;DHT22;75325;47.812;13.026;2024-01-27T14:37:34;13.00;64.00
20358;DHT22;75325;47.812;13.026;2024-01-27T14:40:05;13.00;63.90
20358;DHT22;75325;47.812;13.026;2024-01-27T14:42:36;12.90;63.70
20358;DHT22;75325;47.812;13.026;2024-01-27T14:45:08;12.90;63.80
20358;DHT22;75325;47.812;13.026;2024-01-27T14:47:36;12.80;63.80
20358;DHT22;75325;47.812;13.026;2024-01-27T14:50:05;12.80;63.80
20358;DHT22;75325;47.812;13.026;2024-01-27T14:52:34;12.80;64.70
20358;DHT22;75325;47.812;13.026;2024-01-27T14:55:02;12.70;63.80
20358;DHT22;75325;47.812;13.026;2024-01-27T14:57:31;12.70;63.80
20358;DHT22;75325;47.812;13.026;2024-01-27T15:00:01;12.70;63.70
20358;DHT22;75325;47.812;13.026;2024-01-27T15:02:29;12.70;63.50
20358;DHT22;75325;47.812;13.026;2024-01-27T15:04:57;12.70;63.50
20358;DHT22;75325;47.812;13.026;2024-01-27T15:07:26;12.70;63.50
20358;DHT22;75325;47.812;13.026;2024-01-27T15:09:56;12.60;63.40
20358;DHT22;75325;47.812;13.026;2024-01-27T15:12:25;12.60;63.30
20358;DHT22;75325;47.812;13.026;2024-01-27T15:14:53;12.60;63.30
20358;DHT22;75325;47.812;13.026;2024-01-27T15:17:25;12.50;63.20
20358;DHT22;75325;47.812;13.026;2024-01-27T15:19:53;12.50;63.10
20358;DHT22;75325;47.812;13.026;2024-01-27T15:22:22;12.50;63.10
20358;DHT22;75325;47.812;13.026;2024-01-27T15:24:51;12.40;63.00
20358;DHT22;75325;47.812;13.026;2024-01-27T15:27:20;12.50;63.50
20358;DHT22;75325;47.812;13.026;2024-01-27T15:29:48;12.30;63.00